TVF26EN LFPO-LTFJ
Flight info
| Callsign | TVF26EN |
|---|---|
| Flight time | N/A |
| Altitude | 37000 |
| Route | BUBLI DCT LUVAL DCT BEGAR DCT TRA DCT GAMSA DCT GEDSO DCT NISVA DCT BUFRA DCT ADORU UM19 IBODU |
| Aircraft | B738/M-SDE2E3FGHIRWXY/LB1 |
Departure
| Time | N/A |
|---|---|
| Airport | Paris-Orly Airport (LFPO) |
Arrival
| Time | 2026-05-04 13:54 |
|---|---|
| Airport | Istanbul Sabiha Gökçen International Airport (LTFJ) |
| Time | Latitude | Longitude | Altitude | Speed | Heading |
|---|---|---|---|---|---|
| 2026-05-04 12:44 | 44.05161 | 20.31809 | 37135 ft | 458 kts | 117° |
| 2026-05-04 12:44 | 44.03566 | 20.35637 | 37129 ft | 458 kts | 117° |
| 2026-05-04 12:45 | 44.00392 | 20.43235 | 37131 ft | 457 kts | 117° |
| 2026-05-04 12:45 | 43.97192 | 20.50879 | 37137 ft | 458 kts | 117° |
| 2026-05-04 12:46 | 43.93980 | 20.58528 | 37139 ft | 459 kts | 117° |
| 2026-05-04 12:46 | 43.90755 | 20.66187 | 37136 ft | 460 kts | 117° |
| 2026-05-04 12:47 | 43.87521 | 20.73848 | 37136 ft | 461 kts | 117° |
| 2026-05-04 12:47 | 43.84280 | 20.81507 | 37128 ft | 461 kts | 117° |
| 2026-05-04 12:48 | 43.81032 | 20.89158 | 37128 ft | 461 kts | 117° |
| 2026-05-04 12:48 | 43.77781 | 20.96798 | 37127 ft | 460 kts | 117° |
| 2026-05-04 12:49 | 43.74530 | 21.04416 | 37134 ft | 460 kts | 117° |
| 2026-05-04 12:49 | 43.71277 | 21.12021 | 37124 ft | 459 kts | 117° |
| 2026-05-04 12:50 | 43.68021 | 21.19611 | 37127 ft | 458 kts | 117° |
| 2026-05-04 12:50 | 43.64770 | 21.27171 | 37127 ft | 458 kts | 117° |
| 2026-05-04 12:51 | 43.61516 | 21.34717 | 37118 ft | 457 kts | 117° |
| 2026-05-04 12:51 | 43.58268 | 21.42231 | 37122 ft | 456 kts | 117° |
| 2026-05-04 12:52 | 43.55019 | 21.49728 | 37118 ft | 455 kts | 117° |
| 2026-05-04 12:52 | 43.51769 | 21.57206 | 37121 ft | 455 kts | 117° |
| 2026-05-04 12:53 | 43.48518 | 21.64670 | 37125 ft | 454 kts | 117° |
| 2026-05-04 12:53 | 43.45283 | 21.72076 | 37117 ft | 454 kts | 118° |
| 2026-05-04 12:54 | 43.42026 | 21.79514 | 37136 ft | 454 kts | 117° |
| 2026-05-04 12:54 | 43.38768 | 21.86935 | 37134 ft | 454 kts | 118° |
| 2026-05-04 12:55 | 43.35502 | 21.94357 | 37132 ft | 453 kts | 118° |
| 2026-05-04 12:55 | 43.32233 | 22.01765 | 37140 ft | 454 kts | 118° |
| 2026-05-04 12:56 | 43.28959 | 22.09167 | 37127 ft | 454 kts | 118° |
| 2026-05-04 12:56 | 43.26231 | 22.15319 | 37115 ft | 454 kts | 118° |
| 2026-05-04 12:57 | 43.22948 | 22.22707 | 37110 ft | 453 kts | 118° |
| 2026-05-04 12:57 | 43.19662 | 22.30082 | 37103 ft | 454 kts | 118° |
| 2026-05-04 12:58 | 43.16370 | 22.37453 | 37105 ft | 453 kts | 118° |
| 2026-05-04 12:58 | 43.13075 | 22.44811 | 37102 ft | 453 kts | 118° |
| 2026-05-04 12:59 | 43.09963 | 22.52280 | 37096 ft | 449 kts | 109° |
| 2026-05-04 12:59 | 43.07718 | 22.60226 | 37103 ft | 447 kts | 107° |
| 2026-05-04 13:00 | 43.05564 | 22.68190 | 37101 ft | 446 kts | 108° |
| 2026-05-04 13:00 | 43.03374 | 22.76108 | 37101 ft | 445 kts | 108° |
| 2026-05-04 13:01 | 43.01150 | 22.83993 | 37090 ft | 444 kts | 108° |
| 2026-05-04 13:01 | 42.98919 | 22.91830 | 37105 ft | 442 kts | 109° |
| 2026-05-04 13:02 | 42.96685 | 22.99649 | 37103 ft | 441 kts | 109° |
| 2026-05-04 13:02 | 42.94453 | 23.07442 | 37098 ft | 440 kts | 109° |
| 2026-05-04 13:03 | 42.92221 | 23.15214 | 37114 ft | 440 kts | 109° |
| 2026-05-04 13:03 | 42.89985 | 23.22973 | 37116 ft | 439 kts | 109° |
| 2026-05-04 13:04 | 42.87745 | 23.30728 | 37101 ft | 439 kts | 109° |
| 2026-05-04 13:04 | 42.85500 | 23.38472 | 37109 ft | 439 kts | 109° |
| 2026-05-04 13:05 | 42.83248 | 23.46220 | 37109 ft | 440 kts | 109° |
| 2026-05-04 13:05 | 42.80987 | 23.53973 | 37109 ft | 441 kts | 109° |
| 2026-05-04 13:06 | 42.78731 | 23.61684 | 37115 ft | 442 kts | 109° |
| 2026-05-04 13:06 | 42.76437 | 23.69502 | 37113 ft | 443 kts | 110° |
| 2026-05-04 13:07 | 42.74146 | 23.77287 | 37111 ft | 444 kts | 110° |
| 2026-05-04 13:07 | 42.71860 | 23.85034 | 37116 ft | 445 kts | 110° |
| 2026-05-04 13:08 | 42.69547 | 23.92845 | 37107 ft | 446 kts | 110° |
| 2026-05-04 13:08 | 42.67226 | 24.00658 | 37105 ft | 446 kts | 110° |
| 2026-05-04 13:09 | 42.64901 | 24.08464 | 37110 ft | 445 kts | 110° |
| 2026-05-04 13:09 | 42.62576 | 24.16252 | 37107 ft | 444 kts | 110° |
| 2026-05-04 13:10 | 42.60251 | 24.24006 | 37096 ft | 443 kts | 110° |
| 2026-05-04 13:10 | 42.57930 | 24.31718 | 37101 ft | 440 kts | 110° |
| 2026-05-04 13:11 | 42.55616 | 24.39390 | 37092 ft | 438 kts | 110° |
| 2026-05-04 13:11 | 42.53310 | 24.47021 | 37090 ft | 436 kts | 110° |
| 2026-05-04 13:12 | 42.51009 | 24.54609 | 37085 ft | 435 kts | 111° |
| 2026-05-04 13:12 | 42.48706 | 24.62179 | 37074 ft | 434 kts | 111° |
| 2026-05-04 13:13 | 42.46407 | 24.69716 | 37075 ft | 433 kts | 111° |
| 2026-05-04 13:13 | 42.44101 | 24.77253 | 37077 ft | 433 kts | 111° |
| 2026-05-04 13:14 | 42.41787 | 24.84798 | 37069 ft | 435 kts | 111° |
| 2026-05-04 13:14 | 42.39457 | 24.92371 | 37067 ft | 437 kts | 111° |
| 2026-05-04 13:15 | 42.37113 | 24.99968 | 37056 ft | 439 kts | 111° |
| 2026-05-04 13:15 | 42.34754 | 25.07591 | 37052 ft | 440 kts | 111° |
| 2026-05-04 13:16 | 42.32386 | 25.15220 | 37048 ft | 441 kts | 110° |
| 2026-05-04 13:16 | 42.30010 | 25.22856 | 37051 ft | 441 kts | 111° |
| 2026-05-04 13:17 | 42.27628 | 25.30485 | 37045 ft | 440 kts | 111° |
| 2026-05-04 13:17 | 42.25246 | 25.38094 | 37043 ft | 439 kts | 111° |
| 2026-05-04 13:18 | 42.22865 | 25.45678 | 37049 ft | 438 kts | 111° |
| 2026-05-04 13:18 | 42.20485 | 25.53236 | 37045 ft | 437 kts | 111° |
| 2026-05-04 13:19 | 42.18121 | 25.60724 | 37046 ft | 436 kts | 111° |
| 2026-05-04 13:19 | 42.15743 | 25.68233 | 37041 ft | 435 kts | 111° |
| 2026-05-04 13:20 | 42.13368 | 25.75716 | 37044 ft | 434 kts | 111° |
| 2026-05-04 13:20 | 42.10992 | 25.83176 | 37031 ft | 433 kts | 111° |
| 2026-05-04 13:21 | 42.08615 | 25.90621 | 37045 ft | 433 kts | 111° |
| 2026-05-04 13:21 | 42.06235 | 25.98056 | 37038 ft | 432 kts | 111° |
| 2026-05-04 13:22 | 42.03852 | 26.05480 | 37039 ft | 432 kts | 111° |
| 2026-05-04 13:22 | 42.01461 | 26.12908 | 37037 ft | 433 kts | 111° |
| 2026-05-04 13:23 | 41.99061 | 26.20344 | 37045 ft | 434 kts | 111° |
| 2026-05-04 13:23 | 41.96655 | 26.27777 | 37039 ft | 434 kts | 111° |
| 2026-05-04 13:24 | 41.94239 | 26.35221 | 37036 ft | 435 kts | 111° |
| 2026-05-04 13:24 | 41.91815 | 26.42671 | 37043 ft | 436 kts | 111° |
| 2026-05-04 13:25 | 41.88162 | 26.53856 | 37038 ft | 437 kts | 112° |
| 2026-05-04 13:25 | 41.84909 | 26.60758 | 37040 ft | 441 kts | 127° |
| 2026-05-04 13:26 | 41.80998 | 26.66965 | 36502 ft | 431 kts | 128° |
| 2026-05-04 13:26 | 41.79059 | 26.70023 | 35927 ft | 431 kts | 127° |
| 2026-05-04 13:26 | 41.77128 | 26.73090 | 35345 ft | 431 kts | 127° |
| 2026-05-04 13:27 | 41.75205 | 26.76165 | 34798 ft | 430 kts | 126° |
| 2026-05-04 13:27 | 41.73290 | 26.79239 | 34278 ft | 429 kts | 126° |
| 2026-05-04 13:27 | 41.71387 | 26.82298 | 33738 ft | 427 kts | 126° |
| 2026-05-04 13:27 | 41.69488 | 26.85352 | 33003 ft | 428 kts | 126° |
| 2026-05-04 13:28 | 41.67572 | 26.88432 | 32126 ft | 433 kts | 125° |
| 2026-05-04 13:28 | 41.65633 | 26.91545 | 31241 ft | 438 kts | 125° |
| 2026-05-04 13:28 | 41.63671 | 26.94690 | 30389 ft | 443 kts | 125° |
| 2026-05-04 13:28 | 41.61689 | 26.97861 | 29486 ft | 445 kts | 125° |
| 2026-05-04 13:29 | 41.59696 | 27.01046 | 28508 ft | 448 kts | 125° |
| 2026-05-04 13:29 | 41.57689 | 27.04250 | 27497 ft | 452 kts | 125° |
| 2026-05-04 13:29 | 41.55662 | 27.07482 | 26458 ft | 456 kts | 126° |
| 2026-05-04 13:29 | 41.53536 | 27.10665 | 25448 ft | 462 kts | 128° |
| 2026-05-04 13:30 | 41.51305 | 27.13742 | 24713 ft | 460 kts | 130° |
| 2026-05-04 13:30 | 41.49056 | 27.16746 | 24114 ft | 454 kts | 130° |
| 2026-05-04 13:30 | 41.46831 | 27.19708 | 23470 ft | 450 kts | 130° |
| 2026-05-04 13:30 | 41.44634 | 27.22652 | 22681 ft | 446 kts | 130° |
| 2026-05-04 13:31 | 41.42462 | 27.25588 | 21895 ft | 444 kts | 129° |
| 2026-05-04 13:31 | 41.40304 | 27.28521 | 21138 ft | 442 kts | 129° |
| 2026-05-04 13:31 | 41.38164 | 27.31436 | 20406 ft | 439 kts | 129° |
| 2026-05-04 13:31 | 41.36032 | 27.34339 | 19710 ft | 437 kts | 129° |
| 2026-05-04 13:32 | 41.33914 | 27.37223 | 19026 ft | 435 kts | 129° |
| 2026-05-04 13:32 | 41.31804 | 27.40091 | 18392 ft | 432 kts | 129° |
| 2026-05-04 13:32 | 41.29734 | 27.42901 | 17685 ft | 430 kts | 129° |
| 2026-05-04 13:32 | 41.27650 | 27.45727 | 17219 ft | 428 kts | 129° |
| 2026-05-04 13:33 | 41.25562 | 27.48556 | 17086 ft | 428 kts | 129° |
| 2026-05-04 13:33 | 41.23584 | 27.51483 | 17015 ft | 421 kts | 119° |
| 2026-05-04 13:33 | 41.22337 | 27.54835 | 17027 ft | 393 kts | 105° |
| 2026-05-04 13:33 | 41.21404 | 27.58151 | 17012 ft | 375 kts | 104° |
| 2026-05-04 13:34 | 41.20513 | 27.61333 | 17005 ft | 360 kts | 104° |
| 2026-05-04 13:34 | 41.19646 | 27.64417 | 17014 ft | 355 kts | 104° |
| 2026-05-04 13:34 | 41.18773 | 27.67499 | 17029 ft | 358 kts | 104° |
| 2026-05-04 13:34 | 41.17886 | 27.70605 | 17033 ft | 362 kts | 105° |
| 2026-05-04 13:35 | 41.16984 | 27.73732 | 17033 ft | 364 kts | 105° |
| 2026-05-04 13:35 | 41.15160 | 27.80008 | 17024 ft | 365 kts | 105° |
| 2026-05-04 13:35 | 41.14247 | 27.83141 | 17019 ft | 363 kts | 105° |
| 2026-05-04 13:36 | 41.13336 | 27.86260 | 17024 ft | 362 kts | 105° |
| 2026-05-04 13:36 | 41.12429 | 27.89365 | 17021 ft | 360 kts | 105° |
| 2026-05-04 13:36 | 41.11525 | 27.92453 | 17013 ft | 359 kts | 105° |
| 2026-05-04 13:36 | 41.10621 | 27.95537 | 17024 ft | 358 kts | 105° |
| 2026-05-04 13:37 | 41.09726 | 27.98585 | 16843 ft | 352 kts | 105° |
| 2026-05-04 13:37 | 41.08843 | 28.01589 | 16649 ft | 345 kts | 105° |
| 2026-05-04 13:37 | 41.07985 | 28.04503 | 16572 ft | 333 kts | 104° |
| 2026-05-04 13:37 | 41.07422 | 28.06412 | 16518 ft | 325 kts | 104° |
| 2026-05-04 13:38 | 41.06356 | 28.10036 | 16297 ft | 315 kts | 104° |
| 2026-05-04 13:38 | 41.05561 | 28.12738 | 15953 ft | 314 kts | 104° |
| 2026-05-04 13:38 | 41.04726 | 28.15410 | 15591 ft | 318 kts | 112° |
| 2026-05-04 13:38 | 41.03262 | 28.17675 | 15232 ft | 334 kts | 138° |
| 2026-05-04 13:39 | 41.01135 | 28.18982 | 14898 ft | 344 kts | 162° |
| 2026-05-04 13:39 | 40.98799 | 28.19643 | 14585 ft | 343 kts | 165° |
| 2026-05-04 13:39 | 40.96445 | 28.20213 | 14233 ft | 344 kts | 166° |
| 2026-05-04 13:39 | 40.94095 | 28.20772 | 13911 ft | 343 kts | 166° |
| 2026-05-04 13:40 | 40.91753 | 28.21345 | 13581 ft | 341 kts | 165° |
| 2026-05-04 13:40 | 40.89427 | 28.21932 | 13251 ft | 339 kts | 165° |
| 2026-05-04 13:40 | 40.87895 | 28.22324 | 13041 ft | 338 kts | 166° |
| 2026-05-04 13:40 | 40.85567 | 28.22926 | 12714 ft | 335 kts | 166° |
| 2026-05-04 13:41 | 40.83315 | 28.23512 | 12393 ft | 334 kts | 166° |
| 2026-05-04 13:41 | 40.81039 | 28.24104 | 12071 ft | 332 kts | 166° |
| 2026-05-04 13:41 | 40.78776 | 28.24698 | 11745 ft | 331 kts | 165° |
| 2026-05-04 13:42 | 40.74672 | 28.27162 | 11110 ft | 323 kts | 148° |
| 2026-05-04 13:42 | 40.72693 | 28.28554 | 10785 ft | 322 kts | 149° |
| 2026-05-04 13:42 | 40.70709 | 28.29925 | 10474 ft | 321 kts | 148° |
| 2026-05-04 13:42 | 40.69002 | 28.31748 | 10204 ft | 314 kts | 123° |
| 2026-05-04 13:43 | 40.67997 | 28.34224 | 9913 ft | 303 kts | 101° |
| 2026-05-04 13:43 | 40.67691 | 28.36904 | 9591 ft | 293 kts | 85° |
| 2026-05-04 13:43 | 40.67647 | 28.39583 | 9259 ft | 292 kts | 84° |
| 2026-05-04 13:43 | 40.67616 | 28.42248 | 8993 ft | 290 kts | 84° |
| 2026-05-04 13:44 | 40.67574 | 28.44935 | 8961 ft | 296 kts | 85° |
| 2026-05-04 13:44 | 40.67521 | 28.47635 | 8947 ft | 294 kts | 85° |
| 2026-05-04 13:44 | 40.67463 | 28.50305 | 8932 ft | 289 kts | 84° |
| 2026-05-04 13:44 | 40.67404 | 28.52910 | 8926 ft | 279 kts | 84° |
| 2026-05-04 13:45 | 40.67598 | 28.55355 | 8941 ft | 261 kts | 69° |
| 2026-05-04 13:45 | 40.68056 | 28.57647 | 8935 ft | 258 kts | 66° |
| 2026-05-04 13:45 | 40.68559 | 28.59909 | 8938 ft | 257 kts | 65° |
| 2026-05-04 13:45 | 40.69061 | 28.62172 | 8941 ft | 257 kts | 66° |
| 2026-05-04 13:46 | 40.69554 | 28.64447 | 8932 ft | 258 kts | 66° |
| 2026-05-04 13:46 | 40.70038 | 28.66730 | 8934 ft | 259 kts | 66° |
| 2026-05-04 13:46 | 40.70514 | 28.69017 | 8990 ft | 260 kts | 66° |
| 2026-05-04 13:46 | 40.70988 | 28.71319 | 8960 ft | 260 kts | 66° |
| 2026-05-04 13:47 | 40.71456 | 28.73613 | 8955 ft | 259 kts | 66° |
| 2026-05-04 13:47 | 40.71922 | 28.75915 | 8931 ft | 260 kts | 66° |
| 2026-05-04 13:47 | 40.72388 | 28.78219 | 8851 ft | 259 kts | 67° |
| 2026-05-04 13:47 | 40.72846 | 28.80505 | 8731 ft | 258 kts | 67° |
| 2026-05-04 13:48 | 40.73297 | 28.82767 | 8546 ft | 252 kts | 67° |
| 2026-05-04 13:48 | 40.73743 | 28.84997 | 8113 ft | 251 kts | 67° |
| 2026-05-04 13:48 | 40.74190 | 28.87227 | 7651 ft | 252 kts | 68° |
| 2026-05-04 13:48 | 40.74637 | 28.89464 | 7232 ft | 252 kts | 68° |
| 2026-05-04 13:49 | 40.75081 | 28.91694 | 6852 ft | 251 kts | 68° |
| 2026-05-04 13:49 | 40.75523 | 28.93913 | 6434 ft | 250 kts | 69° |
| 2026-05-04 13:49 | 40.75965 | 28.96133 | 5985 ft | 250 kts | 69° |
| 2026-05-04 13:49 | 40.76402 | 28.98340 | 5617 ft | 247 kts | 69° |
| 2026-05-04 13:50 | 40.76830 | 29.00497 | 5222 ft | 245 kts | 69° |
| 2026-05-04 13:50 | 40.77458 | 29.02566 | 4873 ft | 236 kts | 52° |
| 2026-05-04 13:50 | 40.78349 | 29.04332 | 4611 ft | 234 kts | 51° |
| 2026-05-04 13:50 | 40.79246 | 29.06136 | 4583 ft | 237 kts | 51° |
| 2026-05-04 13:51 | 40.80147 | 29.07980 | 4568 ft | 241 kts | 52° |
| 2026-05-04 13:51 | 40.81013 | 29.09888 | 4500 ft | 242 kts | 56° |
| 2026-05-04 13:51 | 40.81767 | 29.11852 | 4324 ft | 241 kts | 59° |
| 2026-05-04 13:51 | 40.82500 | 29.13874 | 4024 ft | 240 kts | 60° |
| 2026-05-04 13:52 | 40.83861 | 29.17627 | 3988 ft | 211 kts | 59° |
| 2026-05-04 13:52 | 40.84468 | 29.19289 | 3983 ft | 191 kts | 58° |
| 2026-05-04 13:52 | 40.85055 | 29.20917 | 3020 ft | 214 kts | 60° |
| 2026-05-04 13:53 | 40.85692 | 29.22764 | 2328 ft | 217 kts | 62° |
| 2026-05-04 13:53 | 40.86314 | 29.24586 | 1450 ft | 220 kts | 63° |
| 2026-05-04 13:53 | 40.86939 | 29.26335 | 1057 ft | 198 kts | 59° |
| 2026-05-04 13:54 | 40.88029 | 29.29100 | 545 ft | 146 kts | 62° |
| 2026-05-04 13:54 | 40.88480 | 29.30255 | 368 ft | 137 kts | 62° |
| 2026-05-04 13:54 | 40.89060 | 29.31818 | 308 ft | 49 kts | 63° |
| 2026-05-04 13:55 | 40.89152 | 29.32060 | 308 ft | 22 kts | 63° |
| 2026-05-04 13:55 | 40.89318 | 29.32391 | 310 ft | 17 kts | 34° |
| 2026-05-04 13:55 | 40.89399 | 29.32460 | 310 ft | 15 kts | 33° |
| 2026-05-04 13:56 | 40.89499 | 29.32480 | 310 ft | 16 kts | 342° |
| 2026-05-04 13:56 | 40.89577 | 29.32426 | 310 ft | 1 kts | 329° |
| 2026-05-04 13:56 | 40.89763 | 29.32297 | 310 ft | 19 kts | 334° |
| 2026-05-04 13:57 | 40.89892 | 29.32219 | 310 ft | 18 kts | 336° |
| 2026-05-04 13:57 | 40.89989 | 29.32166 | 310 ft | 12 kts | 340° |
| 2026-05-04 13:58 | 40.90207 | 29.32389 | 311 ft | 18 kts | 65° |
| 2026-05-04 13:58 | 40.90240 | 29.32481 | 311 ft | 0 kts | 63° |